Аэропорт: Звартноц. Ереван

ICAO: UDYZ

METAR:
2019/01/21 23:00
UDYZ 212300Z 30001KT 2300 BR NSC M08/M10 Q1022 R09/010070 NOSIG
METAR:
2019/01/21 18:00
TAF UDYZ 211707Z 2118/2218 VRB06KT 3500 BR NSC 
      TEMPO 2122/2206 1000 BR